Time;durP1;ratioP1;P1;durP2;ratioP2;P2;SDS_P1;SDS_P2;PMS_P1;PMS_P2;Temp;Humidity;BMP_temperature;BMP_pressure;BME280_temperature;BME280_humidity;BME280_pressure;Samples;Min_cycle;Max_cycle;Signal;HPM_P1;HPM_P2
2022/05/28 00:00:59;;;;;;;2.70;1.10;;;;;;;;;;5112814;28;20062;-78
2022/05/28 00:03:26;;;;;;;2.25;1.45;;;;;;;;;;5112448;28;20058;-77
2022/05/28 00:05:52;;;;;;;3.10;1.50;;;;;;;;;;5094569;28;20039;-78
2022/05/28 00:08:17;;;;;;;3.00;1.10;;;;;;;;;;5094433;28;20027;-78
2022/05/28 00:10:44;;;;;;;2.50;1.10;;;;;;;;;;5094567;28;20330;-76
2022/05/28 00:13:10;;;;;;;3.08;1.38;;;;;;;;;;5093961;28;20036;-76
2022/05/28 00:15:35;;;;;;;2.90;1.08;;;;;;;;;;5112285;28;20454;-75
2022/05/28 00:18:01;;;;;;;2.65;1.13;;;;;;;;;;5094092;28;20465;-77
2022/05/28 00:20:27;;;;;;;3.17;1.30;;;;;;;;;;5112480;28;20023;-77
2022/05/28 00:22:52;;;;;;;2.95;1.38;;;;;;;;;;5094083;28;20151;-77
2022/05/28 00:25:18;;;;;;;2.92;1.10;;;;;;;;;;5094178;28;20100;-78
2022/05/28 00:27:44;;;;;;;1.65;0.88;;;;;;;;;;5112279;28;20535;-76
2022/05/28 00:30:12;;;;;;;2.58;1.17;;;;;;;;;;5094184;28;20024;-78
2022/05/28 00:32:38;;;;;;;3.53;1.17;;;;;;;;;;5076722;28;20028;-77
2022/05/28 00:35:04;;;;;;;4.50;1.58;;;;;;;;;;5093947;28;20492;-78
2022/05/28 00:37:30;;;;;;;1.88;1.20;;;;;;;;;;5112601;28;20461;-77
2022/05/28 00:39:55;;;;;;;3.90;1.40;;;;;;;;;;5112055;28;20127;-78
2022/05/28 00:42:21;;;;;;;2.25;1.20;;;;;;;;;;5093888;28;20029;-77
2022/05/28 00:44:46;;;;;;;4.05;1.13;;;;;;;;;;5090268;28;20044;-78
2022/05/28 00:47:12;;;;;;;3.80;1.20;;;;;;;;;;5090278;28;20023;-77
2022/05/28 00:49:37;;;;;;;2.67;1.23;;;;;;;;;;5090363;28;20039;-77
2022/05/28 00:52:07;;;;;;;3.60;1.10;;;;;;;;;;5073443;28;20059;-78
2022/05/28 00:54:38;;;;;;;1.70;0.88;;;;;;;;;;5091702;28;20039;-78
2022/05/28 00:57:04;;;;;;;2.58;1.17;;;;;;;;;;5090199;28;20308;-77
2022/05/28 00:59:30;;;;;;;2.05;1.02;;;;;;;;;;5091577;28;20028;-77
2022/05/28 01:02:01;;;;;;;3.65;1.20;;;;;;;;;;5090193;28;20088;-77
2022/05/28 01:04:58;;;;;;;3.88;1.23;;;;;;;;;;5090335;28;20512;-77
2022/05/28 01:07:41;;;;;;;2.60;1.30;;;;;;;;;;5057541;28;20538;-77
2022/05/28 01:10:17;;;;;;;4.65;1.20;;;;;;;;;;5091520;28;20032;-77
2022/05/28 01:13:08;;;;;;;1.25;0.95;;;;;;;;;;5090006;28;20027;-77
2022/05/28 01:15:44;;;;;;;1.77;1.05;;;;;;;;;;5091774;28;20104;-77
2022/05/28 01:18:41;;;;;;;2.58;1.20;;;;;;;;;;5090009;28;20031;-77
2022/05/28 01:21:17;;;;;;;2.85;1.50;;;;;;;;;;5057454;28;20035;-78
2022/05/28 01:23:57;;;;;;;4.82;1.25;;;;;;;;;;5090054;28;20028;-77
2022/05/28 01:26:52;;;;;;;2.17;1.10;;;;;;;;;;5091954;28;20012;-77
2022/05/28 01:29:19;;;;;;;3.08;1.42;;;;;;;;;;5077023;28;20334;-77
2022/05/28 01:31:45;;;;;;;3.15;1.17;;;;;;;;;;5093823;28;20019;-77
2022/05/28 01:34:12;;;;;;;4.18;1.10;;;;;;;;;;5094014;28;20020;-77
2022/05/28 01:36:38;;;;;;;3.78;1.80;;;;;;;;;;5093927;28;20059;-77
2022/05/28 01:39:05;;;;;;;2.42;1.10;;;;;;;;;;5093800;28;20035;-77
2022/05/28 01:41:31;;;;;;;4.70;1.77;;;;;;;;;;5094665;28;20495;-77
2022/05/28 01:43:57;;;;;;;3.67;1.50;;;;;;;;;;5096645;28;20059;-77
2022/05/28 01:46:27;;;;;;;4.30;1.30;;;;;;;;;;5115339;28;20088;-77
2022/05/28 01:48:54;;;;;;;3.42;1.60;;;;;;;;;;5097442;28;20138;-77
2022/05/28 01:51:21;;;;;;;2.33;1.30;;;;;;;;;;5096994;28;20158;-77
2022/05/28 01:56:31;;;;;;;2.83;1.42;;;;;;;;;;5099486;28;20111;-77
2022/05/28 01:58:56;;;;;;;3.90;1.60;;;;;;;;;;5096991;28;20031;-77
2022/05/28 02:01:22;;;;;;;5.15;1.92;;;;;;;;;;5096698;28;20031;-76
2022/05/28 02:03:52;;;;;;;5.68;1.40;;;;;;;;;;5097709;28;20035;-76
2022/05/28 02:06:18;;;;;;;2.88;1.50;;;;;;;;;;5096731;28;20027;-76
2022/05/28 02:08:45;;;;;;;1.83;1.10;;;;;;;;;;5096782;28;20377;-76
2022/05/28 02:11:18;;;;;;;2.70;1.20;;;;;;;;;;5115046;28;20106;-76
2022/05/28 02:13:57;;;;;;;2.30;1.30;;;;;;;;;;5096549;28;20028;-76
2022/05/28 02:16:50;;;;;;;4.10;1.38;;;;;;;;;;5096595;28;20028;-76
2022/05/28 02:19:33;;;;;;;4.00;1.38;;;;;;;;;;5114186;28;20197;-77
2022/05/28 02:22:28;;;;;;;4.13;1.23;;;;;;;;;;5096493;28;20034;-75
2022/05/28 02:24:56;;;;;;;5.80;1.45;;;;;;;;;;5067203;28;20024;-76
2022/05/28 02:27:24;;;;;;;3.17;1.20;;;;;;;;;;5096535;28;20349;-77
2022/05/28 02:29:50;;;;;;;3.40;1.40;;;;;;;;;;5096565;28;20027;-76
2022/05/28 02:32:18;;;;;;;3.40;1.45;;;;;;;;;;5096272;28;20084;-77
2022/05/28 02:34:45;;;;;;;3.65;1.50;;;;;;;;;;5096167;28;20350;-76
2022/05/28 02:37:15;;;;;;;4.05;1.30;;;;;;;;;;5114572;28;20084;-76
2022/05/28 02:39:40;;;;;;;4.30;1.75;;;;;;;;;;5096459;28;20330;-76
2022/05/28 02:42:06;;;;;;;2.10;1.02;;;;;;;;;;5114258;28;20035;-76
2022/05/28 02:44:31;;;;;;;4.90;1.50;;;;;;;;;;5114152;28;20135;-76
2022/05/28 02:46:57;;;;;;;5.03;1.52;;;;;;;;;;5114533;28;20039;-76
2022/05/28 02:49:23;;;;;;;3.00;1.20;;;;;;;;;;5114187;28;20027;-76
2022/05/28 02:51:49;;;;;;;3.55;1.35;;;;;;;;;;5114189;28;20035;-76
2022/05/28 02:54:14;;;;;;;2.58;1.25;;;;;;;;;;5114019;28;20023;-77
2022/05/28 02:56:40;;;;;;;4.07;1.60;;;;;;;;;;5095752;28;20134;-76
2022/05/28 02:59:05;;;;;;;9.13;1.40;;;;;;;;;;5114164;28;20335;-77
2022/05/28 03:01:33;;;;;;;4.03;1.73;;;;;;;;;;5114110;28;20043;-76
2022/05/28 03:03:59;;;;;;;2.67;1.30;;;;;;;;;;5095673;28;20039;-76
2022/05/28 03:06:24;;;;;;;3.33;1.17;;;;;;;;;;5095516;28;20041;-76
2022/05/28 03:08:50;;;;;;;2.38;1.00;;;;;;;;;;5095451;28;20103;-77
2022/05/28 03:11:16;;;;;;;1.75;1.20;;;;;;;;;;5078842;28;20122;-77
2022/05/28 03:13:42;;;;;;;4.13;1.45;;;;;;;;;;5095250;28;20024;-77
2022/05/28 03:16:08;;;;;;;1.42;0.90;;;;;;;;;;5095331;28;20202;-77
2022/05/28 03:18:33;;;;;;;3.17;1.10;;;;;;;;;;5095215;28;20110;-77
2022/05/28 03:20:59;;;;;;;3.20;1.33;;;;;;;;;;5095480;28;20046;-77
2022/05/28 03:23:24;;;;;;;3.05;1.00;;;;;;;;;;5113770;28;20168;-77
2022/05/28 03:25:50;;;;;;;1.40;0.85;;;;;;;;;;5095168;28;20358;-77
2022/05/28 03:28:15;;;;;;;3.88;1.10;;;;;;;;;;5113253;28;20054;-77
2022/05/28 03:30:40;;;;;;;2.50;1.25;;;;;;;;;;5078127;28;20028;-77
2022/05/28 03:33:06;;;;;;;1.58;1.02;;;;;;;;;;5094982;28;20126;-77
2022/05/28 03:35:31;;;;;;;2.50;1.10;;;;;;;;;;5113018;28;20047;-77
2022/05/28 03:37:56;;;;;;;3.10;1.25;;;;;;;;;;5095160;28;20464;-77
2022/05/28 03:40:22;;;;;;;1.38;0.80;;;;;;;;;;5094763;28;20024;-77
2022/05/28 03:42:47;;;;;;;1.63;1.10;;;;;;;;;;5112916;28;20034;-77
2022/05/28 03:45:12;;;;;;;5.00;1.02;;;;;;;;;;5094671;28;20139;-77
2022/05/28 03:47:38;;;;;;;2.38;0.93;;;;;;;;;;5112755;28;20446;-77
2022/05/28 03:50:04;;;;;;;4.70;0.98;;;;;;;;;;5093990;28;20028;-76
2022/05/28 03:52:29;;;;;;;4.13;1.20;;;;;;;;;;5112917;28;20438;-77
2022/05/28 03:54:55;;;;;;;3.67;1.10;;;;;;;;;;5094580;28;20104;-77
2022/05/28 03:57:24;;;;;;;5.20;1.00;;;;;;;;;;5112840;28;20020;-77
2022/05/28 03:59:50;;;;;;;2.83;1.23;;;;;;;;;;5094608;28;20092;-77
2022/05/28 04:02:15;;;;;;;0.77;0.77;;;;;;;;;;5094646;28;20373;-77
2022/05/28 04:04:40;;;;;;;3.25;1.10;;;;;;;;;;5112902;28;20438;-77
2022/05/28 04:07:06;;;;;;;3.58;1.02;;;;;;;;;;5094218;28;20460;-76
2022/05/28 04:09:32;;;;;;;1.85;1.00;;;;;;;;;;5094394;28;20024;-77
2022/05/28 04:11:57;;;;;;;1.92;0.88;;;;;;;;;;5094457;28;20024;-77
2022/05/28 04:14:23;;;;;;;2.67;0.85;;;;;;;;;;5112370;28;20164;-77
2022/05/28 04:16:48;;;;;;;1.23;0.80;;;;;;;;;;5112313;28;20034;-76
2022/05/28 04:19:13;;;;;;;2.88;0.90;;;;;;;;;;5094374;28;20042;-77
2022/05/28 04:21:39;;;;;;;3.72;0.80;;;;;;;;;;5112379;28;20093;-77
2022/05/28 04:24:05;;;;;;;1.55;0.90;;;;;;;;;;5112449;28;20027;-77
2022/05/28 04:26:30;;;;;;;4.32;1.13;;;;;;;;;;5077295;28;20027;-76
2022/05/28 04:28:56;;;;;;;2.95;0.90;;;;;;;;;;5094189;28;20027;-76
2022/05/28 04:31:21;;;;;;;2.33;1.10;;;;;;;;;;5093908;28;20016;-77
2022/05/28 04:33:47;;;;;;;2.85;1.00;;;;;;;;;;5113025;28;20462;-77
2022/05/28 04:36:12;;;;;;;3.22;1.40;;;;;;;;;;5077723;28;20058;-77
2022/05/28 04:38:37;;;;;;;2.53;1.40;;;;;;;;;;5094492;28;20095;-77
2022/05/28 04:41:03;;;;;;;2.80;1.15;;;;;;;;;;5094391;28;20043;-77
2022/05/28 04:43:28;;;;;;;2.13;1.50;;;;;;;;;;5094621;28;20059;-77
2022/05/28 04:45:53;;;;;;;3.63;1.40;;;;;;;;;;5093941;28;20052;-78
2022/05/28 04:48:19;;;;;;;2.83;1.15;;;;;;;;;;5094491;28;20032;-79
2022/05/28 04:50:44;;;;;;;5.03;1.30;;;;;;;;;;5094049;28;20041;-78
2022/05/28 04:53:10;;;;;;;2.83;1.35;;;;;;;;;;5112145;28;20095;-78
2022/05/28 04:55:37;;;;;;;3.45;1.20;;;;;;;;;;5112160;28;20474;-78
2022/05/28 04:58:03;;;;;;;5.43;1.42;;;;;;;;;;5094167;28;20034;-79
2022/05/28 05:00:28;;;;;;;3.65;1.25;;;;;;;;;;5095923;28;20031;-78
2022/05/28 05:02:54;;;;;;;2.13;0.90;;;;;;;;;;5098062;28;20359;-78
2022/05/28 05:05:19;;;;;;;3.03;1.20;;;;;;;;;;5116349;28;20103;-77
2022/05/28 05:07:44;;;;;;;3.22;1.30;;;;;;;;;;5098038;28;20118;-77
2022/05/28 05:10:10;;;;;;;5.85;1.42;;;;;;;;;;5098160;28;20036;-76
2022/05/28 05:12:36;;;;;;;3.17;1.20;;;;;;;;;;5098145;28;20093;-76
2022/05/28 05:15:02;;;;;;;7.15;1.30;;;;;;;;;;5081431;28;20036;-77
2022/05/28 05:17:27;;;;;;;5.13;1.67;;;;;;;;;;5098455;28;20039;-76
2022/05/28 05:19:54;;;;;;;2.35;0.98;;;;;;;;;;5098941;28;20032;-77
2022/05/28 05:22:20;;;;;;;2.58;1.10;;;;;;;;;;5117691;28;20034;-78
2022/05/28 05:24:45;;;;;;;1.45;0.93;;;;;;;;;;5099387;28;20024;-77
2022/05/28 05:27:11;;;;;;;2.50;1.20;;;;;;;;;;5098723;28;20439;-77
2022/05/28 05:29:38;;;;;;;3.38;1.10;;;;;;;;;;5098627;28;20494;-77
2022/05/28 05:32:04;;;;;;;5.75;1.15;;;;;;;;;;5098889;28;20028;-77
2022/05/28 05:34:45;;;;;;;4.75;1.38;;;;;;;;;;5081392;28;20051;-77
2022/05/28 05:37:11;;;;;;;4.05;1.20;;;;;;;;;;5098188;28;20062;-76
2022/05/28 05:39:36;;;;;;;3.95;1.23;;;;;;;;;;5097475;28;20456;-77
2022/05/28 05:42:02;;;;;;;3.35;1.05;;;;;;;;;;5098204;28;20035;-77
2022/05/28 05:44:27;;;;;;;3.75;1.38;;;;;;;;;;5097332;28;20058;-77
2022/05/28 05:46:53;;;;;;;2.13;1.15;;;;;;;;;;5098013;28;20372;-78
2022/05/28 05:49:18;;;;;;;2.55;1.00;;;;;;;;;;5098340;28;20058;-76
2022/05/28 05:51:45;;;;;;;2.95;0.95;;;;;;;;;;5097335;28;20031;-76
2022/05/28 05:54:11;;;;;;;3.13;1.00;;;;;;;;;;5097710;28;20028;-77
2022/05/28 05:56:37;;;;;;;3.22;1.25;;;;;;;;;;5098068;28;20042;-77
2022/05/28 05:59:02;;;;;;;3.40;1.15;;;;;;;;;;5097870;28;20028;-77
2022/05/28 06:01:28;;;;;;;2.13;1.02;;;;;;;;;;5097679;28;20055;-77
2022/05/28 06:03:53;;;;;;;3.13;1.00;;;;;;;;;;5116065;28;20093;-77
2022/05/28 06:06:19;;;;;;;1.05;0.80;;;;;;;;;;5115317;28;20035;-77
2022/05/28 06:08:45;;;;;;;4.57;1.08;;;;;;;;;;5096963;28;20077;-77
2022/05/28 06:11:11;;;;;;;2.13;1.38;;;;;;;;;;5079155;28;20500;-77
2022/05/28 06:13:36;;;;;;;2.97;1.02;;;;;;;;;;5079809;28;20027;-77
2022/05/28 06:16:02;;;;;;;5.15;1.40;;;;;;;;;;5096957;28;20096;-77
2022/05/28 06:18:28;;;;;;;3.63;1.40;;;;;;;;;;5079968;28;20023;-77
2022/05/28 06:20:54;;;;;;;4.82;1.17;;;;;;;;;;5080310;28;20343;-77
2022/05/28 06:23:19;;;;;;;3.38;1.20;;;;;;;;;;5079976;28;20119;-77
2022/05/28 06:25:45;;;;;;;5.65;1.00;;;;;;;;;;5096643;28;20488;-77
2022/05/28 06:28:11;;;;;;;2.33;1.00;;;;;;;;;;5096446;28;20104;-77
2022/05/28 06:30:36;;;;;;;1.55;0.80;;;;;;;;;;5096508;28;20061;-77
2022/05/28 06:33:02;;;;;;;3.67;1.02;;;;;;;;;;5080010;28;20035;-77
2022/05/28 06:35:30;;;;;;;3.58;0.85;;;;;;;;;;5097701;28;20490;-77
2022/05/28 06:37:55;;;;;;;3.05;1.15;;;;;;;;;;5098689;28;20049;-77
2022/05/28 06:40:21;;;;;;;2.72;1.15;;;;;;;;;;5080656;28;20036;-76
2022/05/28 06:42:47;;;;;;;2.78;1.10;;;;;;;;;;5097215;28;20339;-76
2022/05/28 06:45:14;;;;;;;4.55;1.50;;;;;;;;;;5115153;28;20135;-76
2022/05/28 06:47:44;;;;;;;1.52;0.82;;;;;;;;;;5096869;28;20023;-76
2022/05/28 06:52:54;;;;;;;4.72;0.98;;;;;;;;;;5099916;28;20062;-77
2022/05/28 06:55:19;;;;;;;4.85;1.35;;;;;;;;;;5097553;28;20019;-76
2022/05/28 06:57:45;;;;;;;1.92;1.00;;;;;;;;;;5097487;28;20103;-78
2022/05/28 07:00:11;;;;;;;11.85;2.33;;;;;;;;;;5097521;28;20031;-78
2022/05/28 07:02:36;;;;;;;12.80;2.38;;;;;;;;;;5097927;28;20126;-79
2022/05/28 07:05:01;;;;;;;8.48;2.60;;;;;;;;;;5096709;28;20057;-78
2022/05/28 07:07:27;;;;;;;10.60;3.00;;;;;;;;;;5098448;28;20034;-78
2022/05/28 07:09:52;;;;;;;5.25;2.30;;;;;;;;;;5097733;28;20099;-79
2022/05/28 07:12:17;;;;;;;15.70;2.80;;;;;;;;;;5097596;28;20036;-81
2022/05/28 07:14:43;;;;;;;10.88;2.63;;;;;;;;;;5081289;28;20092;-80
2022/05/28 07:17:08;;;;;;;13.75;2.83;;;;;;;;;;5081042;28;20088;-79
2022/05/28 07:19:33;;;;;;;12.30;2.28;;;;;;;;;;5097673;28;20042;-79
2022/05/28 07:21:59;;;;;;;10.23;2.75;;;;;;;;;;5117660;28;20512;-79
2022/05/28 07:24:25;;;;;;;11.40;2.90;;;;;;;;;;5098152;28;20394;-79
2022/05/28 07:26:51;;;;;;;9.73;3.03;;;;;;;;;;5115963;28;20043;-79
2022/05/28 07:29:17;;;;;;;8.27;2.42;;;;;;;;;;5096812;28;20047;-80
2022/05/28 07:31:42;;;;;;;9.82;2.80;;;;;;;;;;5081104;28;20053;-79
2022/05/28 07:34:08;;;;;;;6.25;2.20;;;;;;;;;;5096890;28;20142;-79
2022/05/28 07:36:35;;;;;;;7.35;2.40;;;;;;;;;;5096105;28;20473;-79
2022/05/28 07:39:01;;;;;;;9.55;2.67;;;;;;;;;;5114908;28;20043;-79
2022/05/28 07:41:26;;;;;;;4.28;2.10;;;;;;;;;;5096042;28;20046;-79
2022/05/28 07:43:53;;;;;;;7.38;1.80;;;;;;;;;;5078583;28;20039;-80
2022/05/28 07:46:27;;;;;;;3.63;1.73;;;;;;;;;;5095584;28;20044;-79
2022/05/28 07:48:54;;;;;;;6.07;1.92;;;;;;;;;;5114021;28;20454;-78
2022/05/28 07:51:19;;;;;;;4.13;1.75;;;;;;;;;;5114185;28;20096;-78
2022/05/28 07:53:45;;;;;;;9.38;1.98;;;;;;;;;;5095729;28;20118;-79
2022/05/28 07:56:11;;;;;;;7.07;2.20;;;;;;;;;;5095930;28;20126;-79
2022/05/28 07:58:37;;;;;;;5.95;1.70;;;;;;;;;;5095541;28;20035;-79
2022/05/28 08:01:04;;;;;;;4.78;1.90;;;;;;;;;;5079310;28;20031;-80
2022/05/28 08:03:29;;;;;;;4.32;1.60;;;;;;;;;;5096316;28;20389;-80
2022/05/28 08:05:56;;;;;;;5.10;1.63;;;;;;;;;;5095162;28;20027;-78
2022/05/28 08:08:23;;;;;;;7.20;1.60;;;;;;;;;;5078268;28;20067;-79
2022/05/28 08:10:49;;;;;;;9.35;1.70;;;;;;;;;;5095584;28;20019;-78
2022/05/28 08:13:18;;;;;;;4.97;1.60;;;;;;;;;;5080161;28;20100;-80
2022/05/28 08:15:44;;;;;;;17.55;3.38;;;;;;;;;;5098640;28;20047;-80
2022/05/28 08:18:15;;;;;;;11.05;2.60;;;;;;;;;;5079281;28;20027;-80
2022/05/28 08:23:25;;;;;;;9.43;2.10;;;;;;;;;;5098973;28;20038;-80
2022/05/28 08:25:50;;;;;;;17.35;3.03;;;;;;;;;;5115464;28;20027;-82
2022/05/28 08:28:18;;;;;;;24.10;2.88;;;;;;;;;;5097026;28;20026;-81
2022/05/28 08:30:44;;;;;;;9.32;2.05;;;;;;;;;;5098112;28;20024;-82
2022/05/28 08:33:11;;;;;;;9.73;2.03;;;;;;;;;;5078070;28;20434;-82
2022/05/28 08:35:38;;;;;;;5.68;1.73;;;;;;;;;;5076921;28;20027;-83
2022/05/28 08:38:06;;;;;;;6.00;2.47;;;;;;;;;;5094477;28;20149;-81
2022/05/28 08:40:38;;;;;;;6.82;1.60;;;;;;;;;;5112765;28;20046;-85
2022/05/28 08:43:03;;;;;;;5.82;1.98;;;;;;;;;;5077191;28;20024;-82
2022/05/28 08:45:32;;;;;;;6.00;1.90;;;;;;;;;;5112597;28;20052;-82
2022/05/28 08:47:57;;;;;;;6.65;1.67;;;;;;;;;;5094160;28;20023;-82
2022/05/28 08:50:23;;;;;;;5.13;1.33;;;;;;;;;;5077184;28;20038;-81
2022/05/28 08:52:55;;;;;;;7.82;1.80;;;;;;;;;;5093964;28;20140;-81
2022/05/28 08:55:24;;;;;;;4.72;1.63;;;;;;;;;;5077883;28;20028;-81
2022/05/28 08:58:07;;;;;;;6.15;1.85;;;;;;;;;;5094412;28;20431;-82
2022/05/28 09:00:41;;;;;;;5.60;2.00;;;;;;;;;;5060843;28;20490;-77
2022/05/28 09:03:11;;;;;;;7.97;2.13;;;;;;;;;;5112609;28;20093;-77
2022/05/28 09:06:24;;;;;;;15.40;2.17;;;;;;;;;;5078153;28;20085;-79
2022/05/28 09:08:51;;;;;;;3.35;1.50;;;;;;;;;;5011161;28;20440;-78
2022/05/28 09:11:21;;;;;;;8.20;1.63;;;;;;;;;;4993574;28;20084;-78
2022/05/28 09:13:49;;;;;;;4.72;1.60;;;;;;;;;;4993508;28;20033;-78
2022/05/28 09:16:30;;;;;;;8.18;1.90;;;;;;;;;;4993282;28;20036;-79
2022/05/28 09:19:02;;;;;;;7.20;1.80;;;;;;;;;;4993989;28;20448;-83
2022/05/28 09:21:27;;;;;;;8.27;1.63;;;;;;;;;;4977465;28;20433;-78
2022/05/28 09:24:20;;;;;;;6.80;1.90;;;;;;;;;;4993285;28;20129;-78
2022/05/28 09:27:03;;;;;;;8.73;2.05;;;;;;;;;;5003987;28;20034;-78
2022/05/28 09:29:37;;;;;;;6.30;2.28;;;;;;;;;;5010061;28;20034;-79
2022/05/28 09:32:21;;;;;;;6.80;2.13;;;;;;;;;;5009359;28;20034;-80
2022/05/28 09:35:02;;;;;;;4.78;2.00;;;;;;;;;;5010304;28;20033;-79
2022/05/28 09:37:40;;;;;;;8.57;2.00;;;;;;;;;;4993635;28;20396;-80
2022/05/28 09:40:11;;;;;;;6.63;1.77;;;;;;;;;;5055152;28;20063;-78
2022/05/28 09:43:18;;;;;;;4.68;1.70;;;;;;;;;;5093738;28;20474;-79
2022/05/28 09:46:17;;;;;;;6.97;1.50;;;;;;;;;;5111720;28;20503;-79
2022/05/28 09:48:43;;;;;;;4.05;1.75;;;;;;;;;;5081284;28;20024;-79
2022/05/28 09:51:22;;;;;;;4.15;1.50;;;;;;;;;;5116123;28;20032;-79
2022/05/28 09:56:36;;;;;;;;;;;;;;;;;;5100786;28;20038;-78
2022/05/28 09:59:18;;;;;;;7.97;2.22;;;;;;;;;;5098525;28;20013;-79
2022/05/28 10:02:11;;;;;;;9.10;2.63;;;;;;;;;;5098478;28;20055;-79
2022/05/28 10:05:08;;;;;;;6.97;2.13;;;;;;;;;;5096547;28;20126;-79
2022/05/28 10:07:42;;;;;;;7.57;2.10;;;;;;;;;;5115817;28;20035;-79
2022/05/28 10:10:19;;;;;;;9.13;1.77;;;;;;;;;;5097116;28;20076;-79
2022/05/28 10:12:45;;;;;;;5.18;1.70;;;;;;;;;;5115339;28;20102;-80
2022/05/28 10:15:20;;;;;;;7.65;1.98;;;;;;;;;;5079797;28;20123;-79
2022/05/28 10:18:00;;;;;;;5.57;2.20;;;;;;;;;;5096897;28;20030;-79
2022/05/28 10:20:27;;;;;;;5.95;2.20;;;;;;;;;;5080024;28;20388;-79
2022/05/28 10:22:54;;;;;;;6.43;1.70;;;;;;;;;;5080996;28;20038;-80
2022/05/28 10:25:34;;;;;;;3.97;1.70;;;;;;;;;;5099119;28;20068;-80
2022/05/28 10:28:00;;;;;;;4.15;1.73;;;;;;;;;;5097387;28;20064;-78
2022/05/28 10:30:30;;;;;;;4.35;1.67;;;;;;;;;;5079991;28;20050;-78
2022/05/28 10:32:55;;;;;;;9.85;2.53;;;;;;;;;;5097196;28;20059;-78
2022/05/28 10:35:27;;;;;;;6.57;1.60;;;;;;;;;;5097278;28;20059;-79
2022/05/28 10:38:14;;;;;;;4.93;1.73;;;;;;;;;;5079942;28;20035;-78
2022/05/28 10:40:57;;;;;;;6.50;1.63;;;;;;;;;;5086609;28;20115;-78
2022/05/28 10:43:28;;;;;;;7.32;1.75;;;;;;;;;;5097011;28;20457;-78
2022/05/28 10:46:22;;;;;;;3.95;1.60;;;;;;;;;;5097253;28;20147;-79
2022/05/28 10:49:02;;;;;;;3.55;1.70;;;;;;;;;;5097102;28;20023;-79
2022/05/28 10:51:40;;;;;;;4.43;1.88;;;;;;;;;;5115281;28;20061;-79
2022/05/28 10:54:18;;;;;;;6.90;2.20;;;;;;;;;;5079580;28;20034;-78
2022/05/28 10:56:55;;;;;;;4.50;1.73;;;;;;;;;;5096237;28;20028;-78
2022/05/28 10:59:44;;;;;;;4.28;1.88;;;;;;;;;;5115964;28;20024;-81
2022/05/28 11:02:12;;;;;;;5.95;1.95;;;;;;;;;;5096510;28;20030;-81
2022/05/28 11:04:50;;;;;;;5.30;2.38;;;;;;;;;;5115398;28;20055;-80
2022/05/28 11:07:27;;;;;;;3.42;1.92;;;;;;;;;;5115945;28;20351;-81
2022/05/28 11:09:53;;;;;;;4.57;1.70;;;;;;;;;;5096336;28;20072;-79
2022/05/28 11:12:37;;;;;;;3.67;1.70;;;;;;;;;;5114589;28;20186;-80
2022/05/28 11:15:06;;;;;;;;;;;;;;;;;;5116255;28;20020;-80
2022/05/28 11:17:56;;;;;;;4.30;1.75;;;;;;;;;;5096557;28;19956;-81
2022/05/28 11:20:41;;;;;;;6.72;1.50;;;;;;;;;;5115202;28;20023;-81
2022/05/28 11:23:15;;;;;;;6.65;1.52;;;;;;;;;;5096203;28;20035;-79
2022/05/28 11:25:47;;;;;;;3.85;1.35;;;;;;;;;;5079295;28;20394;-79
2022/05/28 11:28:31;;;;;;;2.70;1.25;;;;;;;;;;5114885;28;20490;-81
2022/05/28 11:30:57;;;;;;;;;;;;;;;;;;5115795;28;20477;-83
2022/05/28 11:33:27;;;;;;;7.35;1.75;;;;;;;;;;5097915;28;19919;-80
2022/05/28 11:36:01;;;;;;;11.02;2.50;;;;;;;;;;5079574;28;20042;-78
2022/05/28 11:38:30;;;;;;;40.75;8.30;;;;;;;;;;5096149;28;20024;-77
2022/05/28 11:41:10;;;;;;;26.48;6.53;;;;;;;;;;5096330;28;20034;-77
2022/05/28 11:43:53;;;;;;;23.38;5.35;;;;;;;;;;5096206;28;20092;-78
2022/05/28 11:46:32;;;;;;;34.10;8.05;;;;;;;;;;5093529;28;20040;-78
2022/05/28 11:52:19;;;;;;;29.40;6.20;;;;;;;;;;5092865;28;20039;-78
2022/05/28 11:54:49;;;;;;;;;;;;;;;;;;5094085;28;20028;-79
2022/05/28 11:57:30;;;;;;;20.80;6.65;;;;;;;;;;5092718;28;20022;-78
2022/05/28 11:59:57;;;;;;;17.70;5.60;;;;;;;;;;5075336;28;20115;-80
2022/05/28 12:02:25;;;;;;;13.30;3.55;;;;;;;;;;5092897;28;20028;-79
2022/05/28 12:04:50;;;;;;;16.70;4.63;;;;;;;;;;5091469;28;20162;-79
2022/05/28 12:07:37;;;;;;;14.85;5.05;;;;;;;;;;5074805;28;20118;-79
2022/05/28 12:10:08;;;;;;;10.35;3.63;;;;;;;;;;5090693;28;20118;-79
2022/05/28 12:12:49;;;;;;;10.30;3.83;;;;;;;;;;5091392;28;20053;-78
2022/05/28 12:15:14;;;;;;;16.85;3.60;;;;;;;;;;5092836;28;20395;-79
2022/05/28 12:17:40;;;;;;;7.40;3.30;;;;;;;;;;5092644;28;20036;-79
2022/05/28 12:20:10;;;;;;;11.82;3.25;;;;;;;;;;5091330;28;20016;-79
2022/05/28 12:22:41;;;;;;;20.92;3.00;;;;;;;;;;5074664;28;20164;-79
2022/05/28 12:25:21;;;;;;;10.38;2.88;;;;;;;;;;5074651;28;20031;-78
2022/05/28 12:27:56;;;;;;;6.65;2.90;;;;;;;;;;5091675;28;20035;-78
2022/05/28 12:30:29;;;;;;;10.82;2.08;;;;;;;;;;5090949;28;20501;-78
2022/05/28 12:32:55;;;;;;;9.68;2.40;;;;;;;;;;5092658;28;20485;-78
2022/05/28 12:35:37;;;;;;;8.40;2.47;;;;;;;;;;5073843;28;20019;-78
2022/05/28 12:38:15;;;;;;;8.35;2.40;;;;;;;;;;5074077;28;20024;-78
2022/05/28 12:40:49;;;;;;;7.18;2.22;;;;;;;;;;5073949;28;20100;-78
2022/05/28 12:43:35;;;;;;;5.10;2.20;;;;;;;;;;5073874;28;20028;-78
2022/05/28 12:46:16;;;;;;;5.88;2.17;;;;;;;;;;5073889;28;20371;-78
2022/05/28 12:48:42;;;;;;;4.47;1.83;;;;;;;;;;5073830;28;20082;-78
2022/05/28 12:51:33;;;;;;;3.92;1.80;;;;;;;;;;5090995;28;20032;-78
2022/05/28 12:54:04;;;;;;;10.57;1.85;;;;;;;;;;5090932;28;20020;-78
2022/05/28 12:56:39;;;;;;;3.63;1.60;;;;;;;;;;5090657;28;20111;-78
2022/05/28 12:59:29;;;;;;;3.10;1.48;;;;;;;;;;5092012;28;20038;-78
2022/05/28 13:02:04;;;;;;;5.22;1.55;;;;;;;;;;5073652;28;20032;-77
2022/05/28 13:04:39;;;;;;;7.68;1.80;;;;;;;;;;5091176;28;20434;-79
2022/05/28 13:07:06;;;;;;;2.83;1.35;;;;;;;;;;5090747;28;20026;-78
2022/05/28 13:09:31;;;;;;;4.63;1.85;;;;;;;;;;5092249;28;20027;-78
2022/05/28 13:12:12;;;;;;;6.10;1.63;;;;;;;;;;5090619;28;20032;-78
2022/05/28 13:14:46;;;;;;;5.47;1.80;;;;;;;;;;5090352;28;20034;-77
2022/05/28 13:17:32;;;;;;;2.90;1.45;;;;;;;;;;5090420;28;20036;-77
2022/05/28 13:20:32;;;;;;;4.25;1.70;;;;;;;;;;5090727;28;20020;-77
2022/05/28 13:23:18;;;;;;;5.78;1.60;;;;;;;;;;5077784;28;20482;-77
2022/05/28 13:26:26;;;;;;;7.50;1.60;;;;;;;;;;5096067;28;20020;-77
2022/05/28 13:29:23;;;;;;;4.60;1.45;;;;;;;;;;5095853;28;20070;-78
2022/05/28 13:31:52;;;;;;;2.40;1.25;;;;;;;;;;5094574;28;20039;-76
2022/05/28 13:34:21;;;;;;;2.80;1.25;;;;;;;;;;5077656;28;20111;-79
2022/05/28 13:36:47;;;;;;;3.15;1.35;;;;;;;;;;5094710;28;20071;-77
2022/05/28 13:39:12;;;;;;;6.25;1.85;;;;;;;;;;5094937;28;20032;-76
2022/05/28 13:41:44;;;;;;;4.18;1.70;;;;;;;;;;5095300;28;20081;-76
2022/05/28 13:44:12;;;;;;;4.10;2.00;;;;;;;;;;5096166;28;20139;-77
2022/05/28 13:46:45;;;;;;;4.07;1.38;;;;;;;;;;5081988;28;20036;-76
2022/05/28 13:49:10;;;;;;;5.30;1.88;;;;;;;;;;5098129;28;20072;-76
2022/05/28 13:51:37;;;;;;;4.95;1.50;;;;;;;;;;5115872;28;20075;-77
2022/05/28 13:54:07;;;;;;;5.28;1.50;;;;;;;;;;5116077;28;20055;-77
2022/05/28 13:56:33;;;;;;;3.42;1.38;;;;;;;;;;5097497;28;20024;-76
2022/05/28 13:58:59;;;;;;;4.85;1.60;;;;;;;;;;5097527;28;20429;-77
2022/05/28 14:01:26;;;;;;;5.38;1.45;;;;;;;;;;5080513;28;20024;-77
2022/05/28 14:03:52;;;;;;;2.67;1.20;;;;;;;;;;5115555;28;20051;-77
2022/05/28 14:06:29;;;;;;;5.93;1.65;;;;;;;;;;5097435;28;20054;-77
2022/05/28 14:08:56;;;;;;;4.20;1.70;;;;;;;;;;5082284;28;20031;-77
2022/05/28 14:11:35;;;;;;;5.55;1.70;;;;;;;;;;5099729;28;20080;-77
2022/05/28 14:14:15;;;;;;;5.13;1.50;;;;;;;;;;5099672;28;20519;-77
2022/05/28 14:16:44;;;;;;;3.30;1.50;;;;;;;;;;5099270;28;20161;-77
2022/05/28 14:19:17;;;;;;;4.38;1.52;;;;;;;;;;5099542;28;20028;-77
2022/05/28 14:21:53;;;;;;;4.25;1.45;;;;;;;;;;5117361;28;20054;-77
2022/05/28 14:24:21;;;;;;;7.07;2.15;;;;;;;;;;5098678;28;20049;-78
2022/05/28 14:26:53;;;;;;;3.88;1.70;;;;;;;;;;5099425;28;20434;-78
2022/05/28 14:29:21;;;;;;;3.58;1.33;;;;;;;;;;5082291;28;20444;-77
2022/05/28 14:31:47;;;;;;;6.05;1.60;;;;;;;;;;5098737;28;20051;-77
2022/05/28 14:34:16;;;;;;;3.72;1.27;;;;;;;;;;5116487;28;20051;-77
2022/05/28 14:36:50;;;;;;;3.83;1.50;;;;;;;;;;5099287;28;20024;-77
2022/05/28 14:39:17;;;;;;;5.13;1.60;;;;;;;;;;5098708;28;20030;-76
2022/05/28 14:42:05;;;;;;;3.72;1.67;;;;;;;;;;5098367;28;20024;-77
2022/05/28 14:44:35;;;;;;;4.40;1.30;;;;;;;;;;5097594;28;20052;-78
2022/05/28 14:47:01;;;;;;;5.10;1.58;;;;;;;;;;5097779;28;20032;-78
2022/05/28 14:49:29;;;;;;;4.28;1.48;;;;;;;;;;5098372;28;20508;-77
2022/05/28 14:52:01;;;;;;;4.50;1.42;;;;;;;;;;5098442;28;20068;-77
2022/05/28 14:54:39;;;;;;;4.95;1.40;;;;;;;;;;5098721;28;20031;-77
2022/05/28 14:57:05;;;;;;;4.07;1.20;;;;;;;;;;5098429;28;20031;-78
2022/05/28 14:59:42;;;;;;;4.40;1.27;;;;;;;;;;5098129;28;20469;-80
2022/05/28 15:02:17;;;;;;;3.60;1.05;;;;;;;;;;5081270;28;20118;-79
2022/05/28 15:04:43;;;;;;;3.75;1.20;;;;;;;;;;5098429;28;20521;-79
2022/05/28 15:07:34;;;;;;;5.38;1.20;;;;;;;;;;5081550;28;20051;-79
2022/05/28 15:10:00;;;;;;;1.83;1.00;;;;;;;;;;5081184;28;20122;-78
2022/05/28 15:12:31;;;;;;;4.28;1.33;;;;;;;;;;5080096;28;20218;-77
2022/05/28 15:14:58;;;;;;;7.40;1.58;;;;;;;;;;5096492;28;20042;-79
2022/05/28 15:17:24;;;;;;;2.70;1.13;;;;;;;;;;5079027;28;20038;-79